sensor_id;sensor_type;location;lat;lon;timestamp;P1;durP1;ratioP1;P2;durP2;ratioP2
63203;SDS011;49297;43.210;27.914;2022-08-16T00:00:18;6.05;;;5.45;;
63203;SDS011;49297;43.210;27.914;2022-08-16T00:02:53;5.22;;;4.72;;
63203;SDS011;49297;43.210;27.914;2022-08-16T00:05:20;6.10;;;5.50;;
63203;SDS011;49297;43.210;27.914;2022-08-16T00:07:48;6.72;;;5.80;;
63203;SDS011;49297;43.210;27.914;2022-08-16T00:10:15;5.38;;;4.88;;
63203;SDS011;49297;43.210;27.914;2022-08-16T00:12:41;5.47;;;4.97;;
63203;SDS011;49297;43.210;27.914;2022-08-16T00:15:14;5.75;;;5.25;;
63203;SDS011;49297;43.210;27.914;2022-08-16T00:17:45;6.70;;;6.13;;
63203;SDS011;49297;43.210;27.914;2022-08-16T00:20:11;6.40;;;5.90;;
63203;SDS011;49297;43.210;27.914;2022-08-16T00:22:38;6.55;;;6.05;;
63203;SDS011;49297;43.210;27.914;2022-08-16T00:25:06;6.30;;;5.60;;
63203;SDS011;49297;43.210;27.914;2022-08-16T00:27:35;6.95;;;5.38;;
63203;SDS011;49297;43.210;27.914;2022-08-16T00:30:03;6.00;;;5.40;;
63203;SDS011;49297;43.210;27.914;2022-08-16T00:32:30;6.50;;;5.90;;
63203;SDS011;49297;43.210;27.914;2022-08-16T00:34:55;6.47;;;5.57;;
63203;SDS011;49297;43.210;27.914;2022-08-16T00:37:22;6.63;;;5.93;;
63203;SDS011;49297;43.210;27.914;2022-08-16T00:39:50;5.57;;;5.03;;
63203;SDS011;49297;43.210;27.914;2022-08-16T00:42:17;10.02;;;5.65;;
63203;SDS011;49297;43.210;27.914;2022-08-16T00:44:45;5.82;;;5.32;;
63203;SDS011;49297;43.210;27.914;2022-08-16T00:47:16;6.68;;;5.97;;
63203;SDS011;49297;43.210;27.914;2022-08-16T00:49:44;5.88;;;5.38;;
63203;SDS011;49297;43.210;27.914;2022-08-16T00:52:10;7.00;;;6.35;;
63203;SDS011;49297;43.210;27.914;2022-08-16T00:54:36;6.85;;;6.20;;
63203;SDS011;49297;43.210;27.914;2022-08-16T00:57:02;6.30;;;5.70;;
63203;SDS011;49297;43.210;27.914;2022-08-16T00:59:31;11.00;;;7.03;;
63203;SDS011;49297;43.210;27.914;2022-08-16T01:01:59;6.97;;;5.43;;
63203;SDS011;49297;43.210;27.914;2022-08-16T01:04:26;6.40;;;5.88;;
63203;SDS011;49297;43.210;27.914;2022-08-16T01:06:53;7.57;;;6.15;;
63203;SDS011;49297;43.210;27.914;2022-08-16T01:09:19;7.28;;;6.10;;
63203;SDS011;49297;43.210;27.914;2022-08-16T01:11:46;6.45;;;5.85;;
63203;SDS011;49297;43.210;27.914;2022-08-16T01:14:14;7.40;;;5.85;;
63203;SDS011;49297;43.210;27.914;2022-08-16T01:16:52;7.53;;;5.82;;
63203;SDS011;49297;43.210;27.914;2022-08-16T01:19:20;7.78;;;6.60;;
63203;SDS011;49297;43.210;27.914;2022-08-16T01:21:56;10.10;;;6.30;;
63203;SDS011;49297;43.210;27.914;2022-08-16T01:24:34;8.48;;;5.88;;
63203;SDS011;49297;43.210;27.914;2022-08-16T01:27:15;6.90;;;5.90;;
63203;SDS011;49297;43.210;27.914;2022-08-16T01:29:46;6.40;;;5.80;;
63203;SDS011;49297;43.210;27.914;2022-08-16T01:32:19;8.23;;;6.28;;
63203;SDS011;49297;43.210;27.914;2022-08-16T01:34:44;10.85;;;6.45;;
63203;SDS011;49297;43.210;27.914;2022-08-16T01:37:11;6.25;;;5.78;;
63203;SDS011;49297;43.210;27.914;2022-08-16T01:39:38;7.30;;;6.18;;
63203;SDS011;49297;43.210;27.914;2022-08-16T01:42:05;7.63;;;6.88;;
63203;SDS011;49297;43.210;27.914;2022-08-16T01:44:33;7.05;;;6.35;;
63203;SDS011;49297;43.210;27.914;2022-08-16T01:47:00;6.88;;;6.28;;
63203;SDS011;49297;43.210;27.914;2022-08-16T01:49:30;9.65;;;6.45;;
63203;SDS011;49297;43.210;27.914;2022-08-16T01:52:06;6.70;;;5.30;;
63203;SDS011;49297;43.210;27.914;2022-08-16T01:54:37;6.65;;;5.78;;
63203;SDS011;49297;43.210;27.914;2022-08-16T01:57:04;7.35;;;6.72;;
63203;SDS011;49297;43.210;27.914;2022-08-16T01:59:32;7.70;;;5.95;;
63203;SDS011;49297;43.210;27.914;2022-08-16T02:02:00;6.22;;;5.63;;
63203;SDS011;49297;43.210;27.914;2022-08-16T02:04:27;6.95;;;6.32;;
63203;SDS011;49297;43.210;27.914;2022-08-16T02:06:55;7.75;;;7.05;;
63203;SDS011;49297;43.210;27.914;2022-08-16T02:09:22;15.35;;;6.32;;
63203;SDS011;49297;43.210;27.914;2022-08-16T02:11:51;9.25;;;6.65;;
63203;SDS011;49297;43.210;27.914;2022-08-16T02:14:21;6.25;;;5.65;;
63203;SDS011;49297;43.210;27.914;2022-08-16T02:16:48;6.57;;;5.97;;
63203;SDS011;49297;43.210;27.914;2022-08-16T02:19:14;10.27;;;7.30;;
63203;SDS011;49297;43.210;27.914;2022-08-16T02:21:44;7.30;;;6.13;;
63203;SDS011;49297;43.210;27.914;2022-08-16T02:24:13;10.32;;;6.88;;
63203;SDS011;49297;43.210;27.914;2022-08-16T02:26:39;7.43;;;6.72;;
63203;SDS011;49297;43.210;27.914;2022-08-16T02:29:05;5.22;;;4.78;;
63203;SDS011;49297;43.210;27.914;2022-08-16T02:31:30;8.63;;;7.78;;
63203;SDS011;49297;43.210;27.914;2022-08-16T02:33:58;7.82;;;6.35;;
63203;SDS011;49297;43.210;27.914;2022-08-16T02:36:24;9.80;;;8.00;;
63203;SDS011;49297;43.210;27.914;2022-08-16T02:38:49;6.82;;;6.15;;
63203;SDS011;49297;43.210;27.914;2022-08-16T02:41:15;6.75;;;6.10;;
63203;SDS011;49297;43.210;27.914;2022-08-16T02:43:41;7.53;;;6.70;;
63203;SDS011;49297;43.210;27.914;2022-08-16T02:46:08;6.55;;;5.78;;
63203;SDS011;49297;43.210;27.914;2022-08-16T02:48:35;5.85;;;5.35;;
63203;SDS011;49297;43.210;27.914;2022-08-16T02:51:03;13.68;;;6.43;;
63203;SDS011;49297;43.210;27.914;2022-08-16T02:53:30;5.88;;;5.28;;
63203;SDS011;49297;43.210;27.914;2022-08-16T02:55:56;7.22;;;6.63;;
63203;SDS011;49297;43.210;27.914;2022-08-16T02:58:23;7.38;;;5.78;;
63203;SDS011;49297;43.210;27.914;2022-08-16T03:00:49;9.00;;;5.75;;
63203;SDS011;49297;43.210;27.914;2022-08-16T03:03:16;6.63;;;5.85;;
63203;SDS011;49297;43.210;27.914;2022-08-16T03:05:42;6.88;;;6.25;;
63203;SDS011;49297;43.210;27.914;2022-08-16T03:08:09;7.07;;;6.45;;
63203;SDS011;49297;43.210;27.914;2022-08-16T03:10:35;7.68;;;5.85;;
63203;SDS011;49297;43.210;27.914;2022-08-16T03:13:03;7.65;;;6.85;;
63203;SDS011;49297;43.210;27.914;2022-08-16T03:15:29;5.60;;;5.10;;
63203;SDS011;49297;43.210;27.914;2022-08-16T03:17:56;6.10;;;5.60;;
63203;SDS011;49297;43.210;27.914;2022-08-16T03:20:22;7.35;;;5.78;;
63203;SDS011;49297;43.210;27.914;2022-08-16T03:22:48;6.72;;;6.10;;
63203;SDS011;49297;43.210;27.914;2022-08-16T03:25:14;7.35;;;6.47;;
63203;SDS011;49297;43.210;27.914;2022-08-16T03:27:40;7.47;;;6.65;;
63203;SDS011;49297;43.210;27.914;2022-08-16T03:30:13;6.53;;;5.88;;
63203;SDS011;49297;43.210;27.914;2022-08-16T03:32:47;6.90;;;6.30;;
63203;SDS011;49297;43.210;27.914;2022-08-16T03:35:15;9.38;;;6.75;;
63203;SDS011;49297;43.210;27.914;2022-08-16T03:37:42;10.07;;;6.75;;
63203;SDS011;49297;43.210;27.914;2022-08-16T03:40:10;7.78;;;6.93;;
63203;SDS011;49297;43.210;27.914;2022-08-16T03:42:37;7.85;;;5.97;;
63203;SDS011;49297;43.210;27.914;2022-08-16T03:45:04;9.23;;;7.72;;
63203;SDS011;49297;43.210;27.914;2022-08-16T03:47:30;7.63;;;6.93;;
63203;SDS011;49297;43.210;27.914;2022-08-16T03:49:57;6.97;;;6.38;;
63203;SDS011;49297;43.210;27.914;2022-08-16T03:52:23;12.93;;;7.75;;
63203;SDS011;49297;43.210;27.914;2022-08-16T03:54:50;8.90;;;8.00;;
63203;SDS011;49297;43.210;27.914;2022-08-16T03:57:18;8.00;;;7.25;;
63203;SDS011;49297;43.210;27.914;2022-08-16T03:59:44;8.70;;;8.00;;
63203;SDS011;49297;43.210;27.914;2022-08-16T04:02:10;9.23;;;8.07;;
63203;SDS011;49297;43.210;27.914;2022-08-16T04:04:37;7.78;;;7.05;;
63203;SDS011;49297;43.210;27.914;2022-08-16T04:07:05;9.05;;;7.25;;
63203;SDS011;49297;43.210;27.914;2022-08-16T04:09:32;10.00;;;8.60;;
63203;SDS011;49297;43.210;27.914;2022-08-16T04:11:59;9.70;;;8.70;;
63203;SDS011;49297;43.210;27.914;2022-08-16T04:14:25;10.27;;;8.57;;
63203;SDS011;49297;43.210;27.914;2022-08-16T04:16:51;9.13;;;8.10;;
63203;SDS011;49297;43.210;27.914;2022-08-16T04:19:17;8.82;;;7.93;;
63203;SDS011;49297;43.210;27.914;2022-08-16T04:21:44;12.02;;;9.75;;
63203;SDS011;49297;43.210;27.914;2022-08-16T04:24:10;10.45;;;9.35;;
63203;SDS011;49297;43.210;27.914;2022-08-16T04:26:35;9.93;;;7.95;;
63203;SDS011;49297;43.210;27.914;2022-08-16T04:29:02;9.48;;;8.70;;
63203;SDS011;49297;43.210;27.914;2022-08-16T04:34:13;8.25;;;7.55;;
63203;SDS011;49297;43.210;27.914;2022-08-16T04:36:39;9.75;;;8.77;;
63203;SDS011;49297;43.210;27.914;2022-08-16T04:39:05;9.68;;;8.73;;
63203;SDS011;49297;43.210;27.914;2022-08-16T04:41:32;17.40;;;9.95;;
63203;SDS011;49297;43.210;27.914;2022-08-16T04:43:58;9.38;;;8.23;;
63203;SDS011;49297;43.210;27.914;2022-08-16T04:46:24;14.50;;;9.45;;
63203;SDS011;49297;43.210;27.914;2022-08-16T04:48:50;11.18;;;8.80;;
63203;SDS011;49297;43.210;27.914;2022-08-16T04:51:16;10.90;;;9.88;;
63203;SDS011;49297;43.210;27.914;2022-08-16T04:53:41;11.10;;;8.75;;
63203;SDS011;49297;43.210;27.914;2022-08-16T04:56:07;10.77;;;9.57;;
63203;SDS011;49297;43.210;27.914;2022-08-16T04:58:33;11.00;;;9.93;;
63203;SDS011;49297;43.210;27.914;2022-08-16T05:01:01;10.75;;;9.77;;
63203;SDS011;49297;43.210;27.914;2022-08-16T05:03:28;10.23;;;8.77;;
63203;SDS011;49297;43.210;27.914;2022-08-16T05:05:54;11.80;;;10.45;;
63203;SDS011;49297;43.210;27.914;2022-08-16T05:08:20;11.93;;;9.75;;
63203;SDS011;49297;43.210;27.914;2022-08-16T05:10:48;14.38;;;9.43;;
63203;SDS011;49297;43.210;27.914;2022-08-16T05:13:14;15.45;;;10.20;;
63203;SDS011;49297;43.210;27.914;2022-08-16T05:15:42;16.73;;;10.50;;
63203;SDS011;49297;43.210;27.914;2022-08-16T05:18:08;11.55;;;10.32;;
63203;SDS011;49297;43.210;27.914;2022-08-16T05:20:36;13.23;;;10.48;;
63203;SDS011;49297;43.210;27.914;2022-08-16T05:23:02;11.57;;;10.20;;
63203;SDS011;49297;43.210;27.914;2022-08-16T05:25:28;11.45;;;9.65;;
63203;SDS011;49297;43.210;27.914;2022-08-16T05:27:54;11.98;;;10.82;;
63203;SDS011;49297;43.210;27.914;2022-08-16T05:30:21;12.55;;;9.40;;
63203;SDS011;49297;43.210;27.914;2022-08-16T05:32:48;13.02;;;10.88;;
63203;SDS011;49297;43.210;27.914;2022-08-16T05:35:15;13.32;;;11.82;;
63203;SDS011;49297;43.210;27.914;2022-08-16T05:37:42;11.18;;;10.20;;
63203;SDS011;49297;43.210;27.914;2022-08-16T05:40:11;11.32;;;10.32;;
63203;SDS011;49297;43.210;27.914;2022-08-16T05:42:38;12.82;;;11.50;;
63203;SDS011;49297;43.210;27.914;2022-08-16T05:45:04;11.85;;;9.80;;
63203;SDS011;49297;43.210;27.914;2022-08-16T05:47:31;14.57;;;10.60;;
63203;SDS011;49297;43.210;27.914;2022-08-16T05:49:57;11.65;;;10.48;;
63203;SDS011;49297;43.210;27.914;2022-08-16T05:52:23;10.85;;;9.52;;
63203;SDS011;49297;43.210;27.914;2022-08-16T05:54:49;10.68;;;9.63;;
63203;SDS011;49297;43.210;27.914;2022-08-16T05:57:15;19.88;;;10.05;;
63203;SDS011;49297;43.210;27.914;2022-08-16T05:59:43;13.23;;;10.57;;
63203;SDS011;49297;43.210;27.914;2022-08-16T06:02:11;11.70;;;10.55;;
63203;SDS011;49297;43.210;27.914;2022-08-16T06:04:38;13.45;;;9.95;;
63203;SDS011;49297;43.210;27.914;2022-08-16T06:07:04;16.30;;;9.35;;
63203;SDS011;49297;43.210;27.914;2022-08-16T06:09:31;11.10;;;10.07;;
63203;SDS011;49297;43.210;27.914;2022-08-16T06:11:58;13.23;;;9.13;;
63203;SDS011;49297;43.210;27.914;2022-08-16T06:14:27;10.25;;;8.50;;
63203;SDS011;49297;43.210;27.914;2022-08-16T06:16:55;12.45;;;8.63;;
63203;SDS011;49297;43.210;27.914;2022-08-16T06:19:23;9.23;;;8.32;;
63203;SDS011;49297;43.210;27.914;2022-08-16T06:21:49;9.75;;;8.70;;
63203;SDS011;49297;43.210;27.914;2022-08-16T06:24:15;9.13;;;8.27;;
63203;SDS011;49297;43.210;27.914;2022-08-16T06:26:41;10.75;;;8.70;;
63203;SDS011;49297;43.210;27.914;2022-08-16T06:29:06;9.98;;;8.15;;
63203;SDS011;49297;43.210;27.914;2022-08-16T06:31:33;9.32;;;8.52;;
63203;SDS011;49297;43.210;27.914;2022-08-16T06:33:59;12.02;;;9.07;;
63203;SDS011;49297;43.210;27.914;2022-08-16T06:36:27;10.90;;;8.68;;
63203;SDS011;49297;43.210;27.914;2022-08-16T06:38:53;10.98;;;9.85;;
63203;SDS011;49297;43.210;27.914;2022-08-16T06:41:19;11.80;;;10.50;;
63203;SDS011;49297;43.210;27.914;2022-08-16T06:43:47;8.38;;;7.57;;
63203;SDS011;49297;43.210;27.914;2022-08-16T06:46:24;9.90;;;9.00;;
63203;SDS011;49297;43.210;27.914;2022-08-16T06:48:59;9.40;;;8.50;;
63203;SDS011;49297;43.210;27.914;2022-08-16T06:51:25;10.13;;;9.23;;
63203;SDS011;49297;43.210;27.914;2022-08-16T06:53:51;10.85;;;9.35;;
63203;SDS011;49297;43.210;27.914;2022-08-16T06:56:17;10.18;;;9.18;;
63203;SDS011;49297;43.210;27.914;2022-08-16T06:58:43;8.98;;;8.10;;
63203;SDS011;49297;43.210;27.914;2022-08-16T07:01:09;9.43;;;8.55;;
63203;SDS011;49297;43.210;27.914;2022-08-16T07:03:36;8.52;;;7.82;;
63203;SDS011;49297;43.210;27.914;2022-08-16T07:06:02;8.77;;;7.95;;
63203;SDS011;49297;43.210;27.914;2022-08-16T07:08:28;9.38;;;8.50;;
63203;SDS011;49297;43.210;27.914;2022-08-16T07:10:56;9.63;;;7.97;;
63203;SDS011;49297;43.210;27.914;2022-08-16T07:13:23;9.15;;;7.55;;
63203;SDS011;49297;43.210;27.914;2022-08-16T07:15:50;8.90;;;8.10;;
63203;SDS011;49297;43.210;27.914;2022-08-16T07:18:17;7.55;;;6.85;;
63203;SDS011;49297;43.210;27.914;2022-08-16T07:20:45;8.38;;;7.68;;
63203;SDS011;49297;43.210;27.914;2022-08-16T07:23:12;6.38;;;5.78;;
63203;SDS011;49297;43.210;27.914;2022-08-16T07:25:39;9.43;;;7.35;;
63203;SDS011;49297;43.210;27.914;2022-08-16T07:28:07;8.07;;;7.28;;
63203;SDS011;49297;43.210;27.914;2022-08-16T07:30:35;10.02;;;7.53;;
63203;SDS011;49297;43.210;27.914;2022-08-16T07:33:04;7.18;;;6.47;;
63203;SDS011;49297;43.210;27.914;2022-08-16T07:35:31;8.88;;;8.13;;
63203;SDS011;49297;43.210;27.914;2022-08-16T07:37:57;7.47;;;6.88;;
63203;SDS011;49297;43.210;27.914;2022-08-16T07:40:24;7.78;;;7.13;;
63203;SDS011;49297;43.210;27.914;2022-08-16T07:42:50;9.40;;;7.50;;
63203;SDS011;49297;43.210;27.914;2022-08-16T07:45:18;9.43;;;8.63;;
63203;SDS011;49297;43.210;27.914;2022-08-16T07:47:44;8.48;;;7.65;;
63203;SDS011;49297;43.210;27.914;2022-08-16T07:50:11;8.10;;;7.30;;
63203;SDS011;49297;43.210;27.914;2022-08-16T07:52:38;10.27;;;7.72;;
63203;SDS011;49297;43.210;27.914;2022-08-16T07:55:06;19.48;;;8.63;;
63203;SDS011;49297;43.210;27.914;2022-08-16T07:57:33;9.13;;;8.40;;
63203;SDS011;49297;43.210;27.914;2022-08-16T07:59:59;10.13;;;9.07;;
63203;SDS011;49297;43.210;27.914;2022-08-16T08:02:26;9.40;;;8.60;;
63203;SDS011;49297;43.210;27.914;2022-08-16T08:04:53;9.60;;;8.57;;
63203;SDS011;49297;43.210;27.914;2022-08-16T08:07:20;9.15;;;8.25;;
63203;SDS011;49297;43.210;27.914;2022-08-16T08:09:46;9.60;;;8.60;;
63203;SDS011;49297;43.210;27.914;2022-08-16T08:12:12;10.75;;;9.40;;
63203;SDS011;49297;43.210;27.914;2022-08-16T08:14:38;8.98;;;7.95;;
63203;SDS011;49297;43.210;27.914;2022-08-16T08:17:04;8.32;;;7.53;;
63203;SDS011;49297;43.210;27.914;2022-08-16T08:19:32;9.13;;;8.32;;
63203;SDS011;49297;43.210;27.914;2022-08-16T08:21:59;7.97;;;7.03;;
63203;SDS011;49297;43.210;27.914;2022-08-16T08:24:25;9.68;;;7.25;;
63203;SDS011;49297;43.210;27.914;2022-08-16T08:26:53;7.75;;;7.10;;
63203;SDS011;49297;43.210;27.914;2022-08-16T08:29:19;9.00;;;8.13;;
63203;SDS011;49297;43.210;27.914;2022-08-16T08:31:45;8.52;;;7.68;;
63203;SDS011;49297;43.210;27.914;2022-08-16T08:34:11;8.25;;;7.22;;
63203;SDS011;49297;43.210;27.914;2022-08-16T08:36:37;9.48;;;8.52;;
63203;SDS011;49297;43.210;27.914;2022-08-16T08:39:04;9.48;;;8.65;;
63203;SDS011;49297;43.210;27.914;2022-08-16T08:41:30;16.27;;;8.07;;
63203;SDS011;49297;43.210;27.914;2022-08-16T08:43:57;8.65;;;7.85;;
63203;SDS011;49297;43.210;27.914;2022-08-16T08:46:23;8.52;;;7.28;;
63203;SDS011;49297;43.210;27.914;2022-08-16T08:48:51;8.75;;;7.85;;
63203;SDS011;49297;43.210;27.914;2022-08-16T08:51:19;10.00;;;7.55;;
63203;SDS011;49297;43.210;27.914;2022-08-16T08:53:45;9.70;;;7.80;;
63203;SDS011;49297;43.210;27.914;2022-08-16T08:56:11;7.47;;;6.78;;
63203;SDS011;49297;43.210;27.914;2022-08-16T08:58:38;9.30;;;7.75;;
63203;SDS011;49297;43.210;27.914;2022-08-16T09:01:05;7.95;;;7.15;;
63203;SDS011;49297;43.210;27.914;2022-08-16T09:03:33;6.97;;;6.32;;
63203;SDS011;49297;43.210;27.914;2022-08-16T09:06:02;6.90;;;6.30;;
63203;SDS011;49297;43.210;27.914;2022-08-16T09:08:30;8.15;;;6.70;;
63203;SDS011;49297;43.210;27.914;2022-08-16T09:10:56;7.47;;;6.55;;
63203;SDS011;49297;43.210;27.914;2022-08-16T09:13:23;7.05;;;6.40;;
63203;SDS011;49297;43.210;27.914;2022-08-16T09:15:51;8.10;;;7.40;;
63203;SDS011;49297;43.210;27.914;2022-08-16T09:18:20;7.18;;;6.45;;
63203;SDS011;49297;43.210;27.914;2022-08-16T09:20:47;6.75;;;6.05;;
63203;SDS011;49297;43.210;27.914;2022-08-16T09:23:15;7.82;;;5.90;;
63203;SDS011;49297;43.210;27.914;2022-08-16T09:25:42;8.38;;;6.68;;
63203;SDS011;49297;43.210;27.914;2022-08-16T09:28:08;5.93;;;5.43;;
63203;SDS011;49297;43.210;27.914;2022-08-16T09:30:34;6.97;;;6.28;;
63203;SDS011;49297;43.210;27.914;2022-08-16T09:33:01;6.85;;;6.15;;
63203;SDS011;49297;43.210;27.914;2022-08-16T09:35:28;6.55;;;5.95;;
63203;SDS011;49297;43.210;27.914;2022-08-16T09:37:54;6.00;;;5.43;;
63203;SDS011;49297;43.210;27.914;2022-08-16T09:40:21;7.90;;;6.35;;
63203;SDS011;49297;43.210;27.914;2022-08-16T09:42:48;5.93;;;5.43;;
63203;SDS011;49297;43.210;27.914;2022-08-16T09:45:15;5.00;;;4.55;;
63203;SDS011;49297;43.210;27.914;2022-08-16T09:47:41;6.32;;;5.40;;
63203;SDS011;49297;43.210;27.914;2022-08-16T09:50:09;7.18;;;5.75;;
63203;SDS011;49297;43.210;27.914;2022-08-16T09:52:36;6.93;;;5.68;;
63203;SDS011;49297;43.210;27.914;2022-08-16T09:55:04;5.63;;;5.13;;
63203;SDS011;49297;43.210;27.914;2022-08-16T09:57:37;7.03;;;5.82;;
63203;SDS011;49297;43.210;27.914;2022-08-16T10:00:07;5.35;;;4.50;;
63203;SDS011;49297;43.210;27.914;2022-08-16T10:02:35;6.82;;;5.55;;
63203;SDS011;49297;43.210;27.914;2022-08-16T10:05:02;5.47;;;5.03;;
63203;SDS011;49297;43.210;27.914;2022-08-16T10:07:29;7.07;;;5.45;;
63203;SDS011;49297;43.210;27.914;2022-08-16T10:09:56;5.50;;;4.95;;
63203;SDS011;49297;43.210;27.914;2022-08-16T10:12:25;6.15;;;5.65;;
63203;SDS011;49297;43.210;27.914;2022-08-16T10:15:13;5.22;;;4.82;;
63203;SDS011;49297;43.210;27.914;2022-08-16T10:17:40;6.03;;;5.43;;
63203;SDS011;49297;43.210;27.914;2022-08-16T10:20:09;4.80;;;4.40;;
63203;SDS011;49297;43.210;27.914;2022-08-16T10:22:36;5.13;;;4.18;;
63203;SDS011;49297;43.210;27.914;2022-08-16T10:25:04;5.53;;;4.82;;
63203;SDS011;49297;43.210;27.914;2022-08-16T10:27:31;4.90;;;4.50;;
63203;SDS011;49297;43.210;27.914;2022-08-16T10:29:59;5.68;;;5.07;;
63203;SDS011;49297;43.210;27.914;2022-08-16T10:32:27;12.20;;;5.07;;
63203;SDS011;49297;43.210;27.914;2022-08-16T10:34:53;7.25;;;5.05;;
63203;SDS011;49297;43.210;27.914;2022-08-16T10:37:20;5.47;;;5.03;;
63203;SDS011;49297;43.210;27.914;2022-08-16T10:39:46;5.85;;;5.25;;
63203;SDS011;49297;43.210;27.914;2022-08-16T10:42:11;7.00;;;4.32;;
63203;SDS011;49297;43.210;27.914;2022-08-16T10:44:37;5.95;;;5.35;;
63203;SDS011;49297;43.210;27.914;2022-08-16T10:47:03;4.78;;;4.38;;
63203;SDS011;49297;43.210;27.914;2022-08-16T10:49:31;6.18;;;5.57;;
63203;SDS011;49297;43.210;27.914;2022-08-16T10:51:57;6.53;;;5.85;;
63203;SDS011;49297;43.210;27.914;2022-08-16T10:54:23;5.45;;;5.00;;
63203;SDS011;49297;43.210;27.914;2022-08-16T10:56:49;6.13;;;5.63;;
63203;SDS011;49297;43.210;27.914;2022-08-16T10:59:16;6.15;;;5.45;;
63203;SDS011;49297;43.210;27.914;2022-08-16T11:01:42;6.65;;;5.68;;
63203;SDS011;49297;43.210;27.914;2022-08-16T11:04:08;6.20;;;5.60;;
63203;SDS011;49297;43.210;27.914;2022-08-16T11:06:34;6.22;;;5.63;;
63203;SDS011;49297;43.210;27.914;2022-08-16T11:09:00;5.15;;;4.05;;
63203;SDS011;49297;43.210;27.914;2022-08-16T11:11:26;4.82;;;4.43;;
63203;SDS011;49297;43.210;27.914;2022-08-16T11:13:51;6.82;;;5.30;;
63203;SDS011;49297;43.210;27.914;2022-08-16T11:16:18;5.65;;;5.18;;
63203;SDS011;49297;43.210;27.914;2022-08-16T11:18:44;9.50;;;4.90;;
63203;SDS011;49297;43.210;27.914;2022-08-16T11:21:12;5.13;;;4.63;;
63203;SDS011;49297;43.210;27.914;2022-08-16T11:23:39;5.88;;;5.35;;
63203;SDS011;49297;43.210;27.914;2022-08-16T11:26:06;6.85;;;6.25;;
63203;SDS011;49297;43.210;27.914;2022-08-16T11:28:32;5.18;;;4.68;;
63203;SDS011;49297;43.210;27.914;2022-08-16T11:31:00;6.03;;;5.25;;
63203;SDS011;49297;43.210;27.914;2022-08-16T11:33:26;6.60;;;5.68;;
63203;SDS011;49297;43.210;27.914;2022-08-16T11:35:52;6.85;;;6.13;;
63203;SDS011;49297;43.210;27.914;2022-08-16T11:38:20;6.85;;;5.07;;
63203;SDS011;49297;43.210;27.914;2022-08-16T11:40:49;4.85;;;4.45;;
63203;SDS011;49297;43.210;27.914;2022-08-16T11:43:25;5.80;;;5.28;;
63203;SDS011;49297;43.210;27.914;2022-08-16T11:45:54;5.53;;;5.03;;
63203;SDS011;49297;43.210;27.914;2022-08-16T11:48:22;5.05;;;4.53;;
63203;SDS011;49297;43.210;27.914;2022-08-16T11:50:49;6.22;;;5.63;;
63203;SDS011;49297;43.210;27.914;2022-08-16T11:53:15;8.95;;;5.93;;
63203;SDS011;49297;43.210;27.914;2022-08-16T11:55:42;4.75;;;4.35;;
63203;SDS011;49297;43.210;27.914;2022-08-16T11:58:09;5.95;;;5.40;;
63203;SDS011;49297;43.210;27.914;2022-08-16T12:00:36;5.25;;;4.65;;
63203;SDS011;49297;43.210;27.914;2022-08-16T12:03:04;5.50;;;4.95;;
63203;SDS011;49297;43.210;27.914;2022-08-16T12:05:30;6.57;;;5.28;;
63203;SDS011;49297;43.210;27.914;2022-08-16T12:07:56;5.82;;;5.35;;
63203;SDS011;49297;43.210;27.914;2022-08-16T12:10:23;8.13;;;5.18;;
63203;SDS011;49297;43.210;27.914;2022-08-16T12:12:50;7.45;;;5.68;;
63203;SDS011;49297;43.210;27.914;2022-08-16T12:15:17;6.22;;;5.30;;
63203;SDS011;49297;43.210;27.914;2022-08-16T12:17:44;6.63;;;6.03;;
63203;SDS011;49297;43.210;27.914;2022-08-16T12:20:18;6.25;;;5.75;;
63203;SDS011;49297;43.210;27.914;2022-08-16T12:22:46;5.50;;;4.65;;
63203;SDS011;49297;43.210;27.914;2022-08-16T12:25:14;11.00;;;6.50;;
63203;SDS011;49297;43.210;27.914;2022-08-16T12:27:42;6.60;;;5.63;;
63203;SDS011;49297;43.210;27.914;2022-08-16T12:30:09;6.85;;;6.35;;
63203;SDS011;49297;43.210;27.914;2022-08-16T12:32:36;6.30;;;5.78;;
63203;SDS011;49297;43.210;27.914;2022-08-16T12:35:04;6.38;;;5.85;;
63203;SDS011;49297;43.210;27.914;2022-08-16T12:37:31;5.72;;;5.22;;
63203;SDS011;49297;43.210;27.914;2022-08-16T12:39:58;7.55;;;6.95;;
63203;SDS011;49297;43.210;27.914;2022-08-16T12:42:24;8.05;;;7.25;;
63203;SDS011;49297;43.210;27.914;2022-08-16T12:44:51;6.97;;;6.00;;
63203;SDS011;49297;43.210;27.914;2022-08-16T12:47:17;6.57;;;5.97;;
63203;SDS011;49297;43.210;27.914;2022-08-16T12:50:03;6.82;;;6.22;;
63203;SDS011;49297;43.210;27.914;2022-08-16T12:52:31;6.95;;;6.32;;
63203;SDS011;49297;43.210;27.914;2022-08-16T12:54:57;7.40;;;6.80;;
63203;SDS011;49297;43.210;27.914;2022-08-16T12:57:23;7.68;;;7.03;;
63203;SDS011;49297;43.210;27.914;2022-08-16T12:59:52;7.82;;;5.63;;
63203;SDS011;49297;43.210;27.914;2022-08-16T13:02:18;7.10;;;6.50;;
63203;SDS011;49297;43.210;27.914;2022-08-16T13:04:45;6.93;;;6.40;;
63203;SDS011;49297;43.210;27.914;2022-08-16T13:07:11;8.07;;;6.85;;
63203;SDS011;49297;43.210;27.914;2022-08-16T13:09:39;7.90;;;7.22;;
63203;SDS011;49297;43.210;27.914;2022-08-16T13:12:16;7.78;;;7.07;;
63203;SDS011;49297;43.210;27.914;2022-08-16T13:14:49;8.02;;;7.18;;
63203;SDS011;49297;43.210;27.914;2022-08-16T13:17:18;8.05;;;7.22;;
63203;SDS011;49297;43.210;27.914;2022-08-16T13:19:49;7.97;;;7.07;;
63203;SDS011;49297;43.210;27.914;2022-08-16T13:22:17;7.38;;;6.68;;
63203;SDS011;49297;43.210;27.914;2022-08-16T13:24:43;7.20;;;6.45;;
63203;SDS011;49297;43.210;27.914;2022-08-16T13:27:09;7.18;;;6.60;;
63203;SDS011;49297;43.210;27.914;2022-08-16T13:29:35;6.60;;;5.93;;
63203;SDS011;49297;43.210;27.914;2022-08-16T13:32:02;6.75;;;6.13;;
63203;SDS011;49297;43.210;27.914;2022-08-16T13:34:28;6.25;;;5.65;;
63203;SDS011;49297;43.210;27.914;2022-08-16T13:36:55;6.90;;;6.30;;
63203;SDS011;49297;43.210;27.914;2022-08-16T13:39:20;9.95;;;5.97;;
63203;SDS011;49297;43.210;27.914;2022-08-16T13:41:46;7.68;;;6.45;;
63203;SDS011;49297;43.210;27.914;2022-08-16T13:44:13;7.07;;;6.47;;
63203;SDS011;49297;43.210;27.914;2022-08-16T13:46:42;7.15;;;5.88;;
63203;SDS011;49297;43.210;27.914;2022-08-16T13:49:11;8.25;;;6.78;;
63203;SDS011;49297;43.210;27.914;2022-08-16T13:51:38;7.57;;;6.88;;
63203;SDS011;49297;43.210;27.914;2022-08-16T13:54:05;10.15;;;6.10;;
63203;SDS011;49297;43.210;27.914;2022-08-16T13:56:31;5.53;;;5.03;;
63203;SDS011;49297;43.210;27.914;2022-08-16T13:58:58;6.65;;;5.95;;
63203;SDS011;49297;43.210;27.914;2022-08-16T14:01:24;6.40;;;5.78;;
63203;SDS011;49297;43.210;27.914;2022-08-16T14:03:50;8.85;;;6.35;;
63203;SDS011;49297;43.210;27.914;2022-08-16T14:06:16;6.15;;;5.55;;
63203;SDS011;49297;43.210;27.914;2022-08-16T14:08:43;6.70;;;6.10;;
63203;SDS011;49297;43.210;27.914;2022-08-16T14:11:10;6.53;;;5.93;;
63203;SDS011;49297;43.210;27.914;2022-08-16T14:13:36;5.88;;;5.38;;
63203;SDS011;49297;43.210;27.914;2022-08-16T14:16:03;5.68;;;5.18;;
63203;SDS011;49297;43.210;27.914;2022-08-16T14:18:29;7.03;;;6.32;;
63203;SDS011;49297;43.210;27.914;2022-08-16T14:20:54;6.38;;;5.65;;
63203;SDS011;49297;43.210;27.914;2022-08-16T14:23:20;5.40;;;5.00;;
63203;SDS011;49297;43.210;27.914;2022-08-16T14:25:48;6.25;;;5.65;;
63203;SDS011;49297;43.210;27.914;2022-08-16T14:28:15;6.00;;;5.35;;
63203;SDS011;49297;43.210;27.914;2022-08-16T14:30:42;5.95;;;5.30;;
63203;SDS011;49297;43.210;27.914;2022-08-16T14:33:08;8.45;;;5.30;;